createdAt,value
2022-11-15T00:00:35.769Z,100.00
2022-11-15T00:03:03.897Z,100.00
2022-11-15T00:05:30.945Z,100.00
2022-11-15T00:07:59.170Z,100.00
2022-11-15T00:10:26.138Z,100.00
2022-11-15T00:12:54.252Z,100.00
2022-11-15T00:15:26.217Z,100.00
2022-11-15T00:17:56.410Z,100.00
2022-11-15T00:20:25.471Z,100.00
2022-11-15T00:22:53.561Z,100.00
2022-11-15T00:25:21.714Z,100.00
2022-11-15T00:28:01.278Z,100.00
2022-11-15T00:30:50.020Z,100.00
2022-11-15T00:33:18.793Z,100.00
2022-11-15T00:38:41.960Z,100.00
2022-11-15T00:41:10.464Z,100.00
2022-11-15T00:43:41.342Z,100.00
2022-11-15T00:46:14.843Z,100.00
2022-11-15T00:48:41.951Z,100.00
2022-11-15T00:51:09.119Z,100.00
2022-11-15T00:53:50.559Z,100.00
2022-11-15T00:56:19.578Z,100.00
2022-11-15T00:58:46.681Z,100.00
2022-11-15T01:01:16.240Z,100.00
2022-11-15T01:03:51.544Z,100.00
2022-11-15T01:06:24.680Z,100.00
2022-11-15T01:09:20.093Z,100.00
2022-11-15T01:11:48.204Z,100.00
2022-11-15T01:14:21.444Z,100.00
2022-11-15T01:17:16.611Z,100.00
2022-11-15T01:19:43.609Z,100.00
2022-11-15T01:22:10.751Z,100.00
2022-11-15T01:24:43.920Z,100.00
2022-11-15T01:27:13.016Z,100.00
2022-11-15T01:29:39.983Z,100.00
2022-11-15T01:32:10.035Z,100.00
2022-11-15T01:34:39.116Z,100.00
2022-11-15T01:37:06.285Z,100.00
2022-11-15T01:39:40.567Z,100.00
2022-11-15T01:42:16.222Z,100.00
2022-11-15T01:45:01.685Z,100.00
2022-11-15T01:47:54.172Z,100.00
2022-11-15T01:50:28.331Z,100.00
2022-11-15T01:52:55.770Z,100.00
2022-11-15T01:55:27.763Z,100.00
2022-11-15T01:58:00.909Z,100.00
2022-11-15T02:00:30.816Z,100.00
2022-11-15T02:03:08.472Z,100.00
2022-11-15T02:05:38.552Z,100.00
2022-11-15T02:08:21.259Z,100.00
2022-11-15T02:10:50.403Z,100.00
2022-11-15T02:13:35.131Z,100.00
2022-11-15T02:16:06.516Z,100.00
2022-11-15T02:18:46.374Z,100.00
2022-11-15T02:21:18.623Z,100.00
2022-11-15T02:23:52.484Z,100.00
2022-11-15T02:26:53.792Z,100.00
2022-11-15T02:29:41.553Z,100.00
2022-11-15T02:32:14.039Z,100.00
2022-11-15T02:34:55.599Z,100.00
2022-11-15T02:38:09.383Z,100.00
2022-11-15T02:41:04.355Z,100.00
2022-11-15T02:43:59.188Z,100.00
2022-11-15T02:46:53.189Z,100.00
2022-11-15T02:49:20.391Z,100.00
2022-11-15T02:51:57.262Z,100.00
2022-11-15T02:54:33.499Z,100.00
2022-11-15T02:57:17.158Z,100.00
2022-11-15T03:00:22.907Z,100.00
2022-11-15T03:03:19.419Z,100.00
2022-11-15T03:06:25.795Z,100.00
2022-11-15T03:08:56.646Z,100.00
2022-11-15T03:11:24.776Z,100.00
2022-11-15T03:14:24.027Z,100.00
2022-11-15T03:17:25.849Z,100.00
2022-11-15T03:20:02.503Z,100.00
2022-11-15T03:22:34.493Z,100.00
2022-11-15T03:25:22.490Z,100.00
2022-11-15T03:27:58.708Z,100.00
2022-11-15T03:30:39.148Z,100.00
2022-11-15T03:33:15.420Z,100.00
2022-11-15T03:35:45.770Z,100.00
2022-11-15T03:38:27.830Z,100.00
2022-11-15T03:41:07.394Z,100.00
2022-11-15T03:51:25.353Z,100.00
2022-11-15T03:54:05.939Z,100.00
2022-11-15T03:56:38.872Z,100.00
2022-11-15T03:59:05.990Z,100.00
2022-11-15T04:01:40.094Z,100.00
2022-11-15T04:04:10.202Z,100.00
2022-11-15T04:06:48.400Z,100.00
2022-11-15T04:09:17.539Z,100.00
2022-11-15T04:11:51.331Z,100.00
2022-11-15T04:14:26.347Z,100.00
2022-11-15T04:16:57.524Z,100.00
2022-11-15T04:19:42.986Z,100.00
2022-11-15T04:22:36.220Z,100.00
2022-11-15T04:25:04.453Z,100.00
2022-11-15T04:27:31.423Z,100.00
2022-11-15T04:30:11.088Z,100.00
2022-11-15T04:32:38.160Z,100.00
2022-11-15T04:35:08.768Z,100.00
2022-11-15T04:37:47.970Z,100.00
2022-11-15T04:40:22.399Z,100.00
2022-11-15T04:43:03.393Z,100.00
2022-11-15T04:45:56.723Z,100.00
2022-11-15T04:48:30.729Z,100.00
2022-11-15T04:50:58.851Z,100.00
2022-11-15T04:53:51.632Z,100.00
2022-11-15T04:56:19.903Z,100.00
2022-11-15T04:58:52.121Z,100.00
2022-11-15T05:01:19.294Z,100.00
2022-11-15T05:04:11.743Z,100.00
2022-11-15T05:06:39.881Z,100.00
2022-11-15T05:09:09.030Z,100.00
2022-11-15T05:11:36.178Z,100.00
2022-11-15T05:14:11.444Z,100.00
2022-11-15T05:16:38.542Z,100.00
2022-11-15T05:19:07.570Z,100.00
2022-11-15T05:21:45.853Z,100.00
2022-11-15T05:24:15.869Z,100.00
2022-11-15T05:26:42.937Z,100.00
2022-11-15T05:29:11.293Z,100.00
2022-11-15T05:31:42.724Z,100.00
2022-11-15T05:34:10.020Z,100.00
2022-11-15T05:36:43.965Z,100.00
2022-11-15T05:39:12.058Z,100.00
2022-11-15T05:41:46.007Z,100.00
2022-11-15T05:44:15.867Z,100.00
2022-11-15T05:46:45.664Z,100.00
2022-11-15T05:49:16.592Z,100.00
2022-11-15T05:51:47.573Z,100.00
2022-11-15T05:54:24.670Z,100.00
2022-11-15T05:56:56.259Z,100.00
2022-11-15T05:59:26.253Z,100.00
2022-11-15T06:01:57.488Z,100.00
2022-11-15T06:04:33.713Z,100.00
2022-11-15T06:07:00.821Z,100.00
2022-11-15T06:09:29.796Z,100.00
2022-11-15T06:12:04.388Z,100.00
2022-11-15T06:14:31.560Z,100.00
2022-11-15T06:16:59.602Z,100.00
2022-11-15T06:19:26.687Z,100.00
2022-11-15T06:21:53.714Z,100.00
2022-11-15T06:24:30.962Z,100.00
2022-11-15T06:26:58.860Z,100.00
2022-11-15T06:29:45.183Z,100.00
2022-11-15T06:32:12.209Z,100.00
2022-11-15T06:34:41.193Z,100.00
2022-11-15T06:37:08.298Z,100.00
2022-11-15T06:39:36.331Z,100.00
2022-11-15T06:42:03.368Z,100.00
2022-11-15T06:44:39.629Z,100.00
2022-11-15T06:47:06.819Z,100.00
2022-11-15T06:49:33.904Z,100.00
2022-11-15T06:52:04.088Z,100.00
2022-11-15T06:54:39.144Z,100.00
2022-11-15T06:57:14.003Z,100.00
2022-11-15T06:59:43.030Z,100.00
2022-11-15T07:02:41.802Z,100.00
2022-11-15T07:05:12.990Z,100.00
2022-11-15T07:08:02.167Z,100.00
2022-11-15T07:10:31.355Z,100.00
2022-11-15T07:13:11.491Z,100.00
2022-11-15T07:15:39.724Z,100.00
2022-11-15T07:18:15.914Z,100.00
2022-11-15T07:20:48.364Z,100.00
2022-11-15T07:23:15.490Z,100.00
2022-11-15T07:25:43.559Z,100.00
2022-11-15T07:28:21.406Z,100.00
2022-11-15T07:30:50.496Z,100.00
2022-11-15T07:33:25.279Z,100.00
2022-11-15T07:35:59.622Z,100.00
2022-11-15T07:38:27.673Z,100.00
2022-11-15T07:41:05.840Z,100.00
2022-11-15T07:43:35.504Z,100.00
2022-11-15T07:46:40.283Z,100.00
2022-11-15T07:49:09.648Z,100.00
2022-11-15T07:51:40.405Z,100.00
2022-11-15T07:54:10.342Z,100.00
2022-11-15T07:56:37.751Z,100.00
2022-11-15T07:59:05.952Z,99.77
2022-11-15T08:01:33.391Z,99.08
2022-11-15T08:04:07.308Z,97.72
2022-11-15T08:06:45.272Z,97.19
2022-11-15T08:09:20.266Z,97.13
2022-11-15T08:11:47.483Z,96.80
2022-11-15T08:14:16.730Z,96.28
2022-11-15T08:16:45.773Z,95.82
2022-11-15T08:19:12.950Z,93.71
2022-11-15T08:21:39.999Z,91.70
2022-11-15T08:24:07.507Z,91.33
2022-11-15T08:26:34.710Z,91.13
2022-11-15T08:29:03.084Z,91.24
2022-11-15T08:31:30.229Z,90.72
2022-11-15T08:33:58.486Z,90.11
2022-11-15T08:36:32.127Z,89.06
2022-11-15T08:39:04.233Z,81.70
2022-11-15T08:41:40.087Z,71.71
2022-11-15T08:44:15.686Z,67.29
2022-11-15T08:46:43.893Z,64.16
2022-11-15T08:49:15.041Z,63.23
2022-11-15T08:51:42.227Z,60.36
2022-11-15T08:54:09.438Z,58.10
2022-11-15T08:57:00.179Z,60.62
2022-11-15T08:59:27.510Z,60.36
2022-11-15T09:01:54.701Z,55.58
2022-11-15T09:04:21.898Z,52.70
2022-11-15T09:06:49.064Z,50.59
2022-11-15T09:09:16.309Z,49.16
2022-11-15T09:11:43.411Z,47.32
2022-11-15T09:14:12.806Z,46.26
2022-11-15T09:16:40.151Z,44.82
2022-11-15T09:19:11.951Z,43.61
2022-11-15T09:21:39.802Z,43.33
2022-11-15T09:24:07.154Z,42.65
2022-11-15T09:26:34.186Z,41.35
2022-11-15T09:29:04.736Z,40.75
2022-11-15T09:31:31.902Z,41.21
2022-11-15T09:33:59.179Z,39.95
2022-11-15T09:36:26.342Z,40.16
2022-11-15T09:38:53.611Z,39.67
2022-11-15T09:41:50.355Z,38.97
2022-11-15T09:44:25.233Z,39.12
2022-11-15T09:47:04.056Z,38.98
2022-11-15T09:49:34.394Z,38.42
2022-11-15T09:52:02.089Z,40.62
2022-11-15T09:54:53.475Z,41.08
2022-11-15T09:57:24.488Z,40.95
2022-11-15T10:00:30.707Z,39.90
2022-11-15T10:03:11.506Z,39.73
2022-11-15T10:05:51.144Z,39.06
2022-11-15T10:08:45.096Z,39.37
2022-11-15T10:11:37.314Z,39.04
2022-11-15T10:14:21.809Z,38.44
2022-11-15T10:17:27.425Z,40.88
2022-11-15T10:20:02.549Z,42.52
2022-11-15T10:22:45.232Z,43.27
2022-11-15T10:25:19.815Z,46.13
2022-11-15T10:28:18.774Z,45.09
2022-11-15T10:30:49.147Z,42.42
2022-11-15T10:33:36.443Z,41.57
2022-11-15T10:36:33.359Z,40.63
2022-11-15T10:39:06.234Z,39.61
2022-11-15T10:41:42.308Z,38.39
2022-11-15T10:44:23.211Z,37.15
2022-11-15T10:47:39.721Z,36.41
2022-11-15T10:50:27.940Z,36.33
2022-11-15T10:52:57.381Z,35.96
2022-11-15T10:55:32.002Z,37.16
2022-11-15T10:58:33.263Z,37.75
2022-11-15T11:01:33.534Z,37.08
2022-11-15T11:04:11.010Z,35.33
2022-11-15T11:06:57.388Z,34.75
2022-11-15T11:09:37.623Z,34.93
2022-11-15T11:12:07.121Z,35.25
2022-11-15T11:14:38.218Z,35.23
2022-11-15T11:17:19.323Z,35.50
2022-11-15T11:19:52.517Z,34.81
2022-11-15T11:22:50.483Z,34.33
2022-11-15T11:25:36.960Z,34.25
2022-11-15T11:28:18.914Z,34.77
2022-11-15T11:30:59.999Z,35.87
2022-11-15T11:33:32.362Z,35.26
2022-11-15T11:36:46.371Z,34.92
2022-11-15T11:39:26.650Z,33.77
2022-11-15T11:42:12.423Z,33.12
2022-11-15T11:44:45.393Z,33.12
2022-11-15T11:47:20.921Z,33.90
2022-11-15T11:49:52.804Z,34.00
2022-11-15T11:52:28.846Z,33.97
2022-11-15T11:55:01.688Z,34.08
2022-11-15T11:58:06.792Z,33.78
2022-11-15T12:00:41.175Z,33.10
2022-11-15T12:03:14.686Z,32.62
2022-11-15T12:05:45.916Z,32.15
2022-11-15T12:08:25.823Z,32.20
2022-11-15T12:11:20.594Z,32.01
2022-11-15T12:13:55.013Z,32.53
2022-11-15T12:16:33.668Z,32.55
2022-11-15T12:19:06.312Z,32.65
2022-11-15T12:22:16.404Z,32.48
2022-11-15T12:24:55.183Z,32.38
2022-11-15T12:27:28.627Z,31.77
2022-11-15T12:29:58.792Z,31.37
2022-11-15T12:32:50.288Z,31.19
2022-11-15T12:35:38.407Z,31.40
2022-11-15T12:38:06.109Z,32.44
2022-11-15T12:40:39.219Z,32.79
2022-11-15T12:43:26.131Z,32.83
2022-11-15T12:45:53.149Z,33.40
2022-11-15T12:48:20.087Z,33.98
2022-11-15T12:50:54.413Z,34.05
2022-11-15T12:53:24.472Z,33.21
2022-11-15T12:56:09.797Z,33.11
2022-11-15T12:59:03.629Z,32.96
2022-11-15T13:01:35.210Z,33.58
2022-11-15T13:04:22.541Z,33.53
2022-11-15T13:07:00.572Z,33.41
2022-11-15T13:09:33.699Z,33.26
2022-11-15T13:12:05.208Z,33.44
2022-11-15T13:14:38.439Z,33.62
2022-11-15T13:17:34.718Z,33.58
2022-11-15T13:20:07.997Z,33.70
2022-11-15T13:23:00.762Z,33.55
2022-11-15T13:25:50.176Z,34.64
2022-11-15T13:28:17.123Z,34.68
2022-11-15T13:30:59.492Z,34.95
2022-11-15T13:33:36.232Z,34.94
2022-11-15T13:36:25.750Z,35.39
2022-11-15T13:39:01.775Z,35.47
2022-11-15T13:41:33.046Z,35.60
2022-11-15T13:44:01.816Z,35.79
2022-11-15T13:46:31.368Z,35.57
2022-11-15T13:49:09.266Z,35.32
2022-11-15T13:51:51.914Z,35.73
2022-11-15T13:54:34.746Z,36.38
2022-11-15T13:57:11.187Z,37.38
2022-11-15T13:59:49.985Z,37.90
2022-11-15T14:02:28.518Z,38.54
2022-11-15T14:04:59.797Z,38.89
2022-11-15T14:07:30.067Z,39.58
2022-11-15T14:09:57.286Z,40.14
2022-11-15T14:12:34.306Z,40.21
2022-11-15T14:15:19.648Z,40.73
2022-11-15T14:17:50.209Z,40.97
2022-11-15T14:20:37.497Z,41.83
2022-11-15T14:23:21.148Z,42.20
2022-11-15T14:25:59.957Z,43.09
2022-11-15T14:28:37.950Z,44.18
2022-11-15T14:31:14.491Z,47.47
2022-11-15T14:33:46.677Z,49.26
2022-11-15T14:36:31.059Z,51.12
2022-11-15T14:39:09.621Z,53.42
2022-11-15T14:41:39.202Z,55.02
2022-11-15T14:44:22.987Z,56.74
2022-11-15T14:46:55.121Z,58.61
2022-11-15T14:49:23.953Z,59.56
2022-11-15T14:51:50.988Z,61.07
2022-11-15T14:54:19.052Z,62.28
2022-11-15T14:57:07.815Z,63.48
2022-11-15T14:59:36.921Z,65.41
2022-11-15T15:02:17.403Z,66.80
2022-11-15T15:04:44.469Z,69.11
2022-11-15T15:07:12.604Z,69.87
2022-11-15T15:09:42.009Z,70.57
2022-11-15T15:12:28.403Z,71.43
2022-11-15T15:14:56.425Z,72.85
2022-11-15T15:17:26.445Z,73.32
2022-11-15T15:19:53.542Z,74.60
2022-11-15T15:22:29.801Z,75.60
2022-11-15T15:24:57.977Z,76.94
2022-11-15T15:27:25.017Z,77.61
2022-11-15T15:29:52.040Z,77.97
2022-11-15T15:32:19.014Z,77.92
2022-11-15T15:34:48.534Z,77.07
2022-11-15T15:37:27.712Z,76.87
2022-11-15T15:39:56.477Z,77.14
2022-11-15T15:42:24.584Z,78.38
2022-11-15T15:44:53.724Z,78.70
2022-11-15T15:47:33.989Z,79.29
2022-11-15T15:50:01.268Z,79.89
2022-11-15T15:52:28.552Z,79.58
2022-11-15T15:54:59.559Z,79.51
2022-11-15T15:57:26.590Z,79.74
2022-11-15T15:59:53.585Z,80.19
2022-11-15T16:02:20.553Z,81.00
2022-11-15T16:04:47.525Z,81.59
2022-11-15T16:07:29.538Z,82.04
2022-11-15T16:10:02.418Z,81.81
2022-11-15T16:12:49.459Z,81.96
2022-11-15T16:15:16.701Z,82.49
2022-11-15T16:18:03.422Z,82.61
2022-11-15T16:20:51.282Z,82.27
2022-11-15T16:23:29.563Z,82.20
2022-11-15T16:25:57.400Z,82.31
2022-11-15T16:28:34.466Z,82.50
2022-11-15T16:31:06.460Z,82.24
2022-11-15T16:33:36.971Z,82.20
2022-11-15T16:36:14.132Z,82.04
2022-11-15T16:38:41.187Z,82.62
2022-11-15T16:41:08.156Z,83.01
2022-11-15T16:43:35.623Z,84.02
2022-11-15T16:46:13.597Z,84.23
2022-11-15T16:48:40.826Z,84.86
2022-11-15T16:51:09.463Z,84.95
2022-11-15T16:53:37.577Z,84.99
2022-11-15T16:56:21.002Z,85.26
2022-11-15T16:58:48.443Z,85.92
2022-11-15T17:01:25.996Z,86.27
2022-11-15T17:03:54.159Z,86.67
2022-11-15T17:06:21.877Z,86.29
2022-11-15T17:08:49.468Z,85.88
2022-11-15T17:11:28.655Z,85.39
2022-11-15T17:13:59.675Z,85.56
2022-11-15T17:16:27.695Z,85.89
2022-11-15T17:18:55.256Z,85.50
2022-11-15T17:21:23.550Z,85.96
2022-11-15T17:23:53.963Z,86.71
2022-11-15T17:26:32.211Z,87.39
2022-11-15T17:29:04.655Z,86.85
2022-11-15T17:31:34.087Z,86.09
2022-11-15T17:34:16.656Z,87.30
2022-11-15T17:36:45.091Z,88.83
2022-11-15T17:39:27.619Z,90.21
2022-11-15T17:41:54.720Z,91.29
2022-11-15T17:44:22.164Z,91.12
2022-11-15T17:46:49.243Z,91.20
2022-11-15T17:49:16.278Z,91.07
2022-11-15T17:51:47.439Z,91.52
2022-11-15T17:54:16.805Z,91.46
2022-11-15T17:56:46.166Z,90.83
2022-11-15T17:59:21.197Z,90.74
2022-11-15T18:01:49.156Z,90.86
2022-11-15T18:04:16.825Z,91.21
2022-11-15T18:06:44.316Z,91.93
2022-11-15T18:09:13.274Z,92.63
2022-11-15T18:11:43.875Z,92.62
2022-11-15T18:14:19.237Z,92.60
2022-11-15T18:16:47.218Z,92.27
2022-11-15T18:19:16.396Z,91.98
2022-11-15T18:21:59.309Z,91.96
2022-11-15T18:24:35.577Z,92.00
2022-11-15T18:27:05.687Z,91.96
2022-11-15T18:29:35.809Z,92.26
2022-11-15T18:32:05.999Z,92.11
2022-11-15T18:34:34.591Z,91.82
2022-11-15T18:37:08.815Z,92.30
2022-11-15T18:39:36.375Z,92.20
2022-11-15T18:42:15.172Z,91.70
2022-11-15T18:44:42.289Z,90.96
2022-11-15T18:47:10.589Z,90.76
2022-11-15T18:49:37.734Z,91.11
2022-11-15T18:52:04.873Z,90.22
2022-11-15T18:54:34.603Z,90.77
2022-11-15T18:57:02.125Z,92.58
2022-11-15T18:59:30.118Z,93.63
2022-11-15T19:01:57.723Z,94.63
2022-11-15T19:04:28.120Z,95.20
2022-11-15T19:06:59.164Z,95.92
2022-11-15T19:09:33.381Z,96.63
2022-11-15T19:12:01.032Z,98.02
2022-11-15T19:14:28.708Z,99.72
2022-11-15T19:16:57.221Z,100.00
2022-11-15T19:19:28.966Z,99.48
2022-11-15T19:21:58.703Z,99.08
2022-11-15T19:24:27.757Z,99.17
2022-11-15T19:26:58.753Z,100.00
2022-11-15T19:29:26.220Z,100.00
2022-11-15T19:31:57.682Z,100.00
2022-11-15T19:34:24.903Z,100.00
2022-11-15T19:36:54.560Z,100.00
2022-11-15T19:39:21.850Z,100.00
2022-11-15T19:41:50.674Z,100.00
2022-11-15T19:44:20.034Z,100.00
2022-11-15T19:47:00.176Z,100.00
2022-11-15T19:49:28.191Z,100.00
2022-11-15T19:51:57.498Z,100.00
2022-11-15T19:54:24.943Z,100.00
2022-11-15T19:56:52.469Z,100.00
2022-11-15T19:59:22.661Z,100.00
2022-11-15T20:01:49.805Z,100.00
2022-11-15T20:04:17.006Z,100.00
2022-11-15T20:06:45.063Z,100.00
2022-11-15T20:09:15.578Z,100.00
2022-11-15T20:11:43.814Z,100.00
2022-11-15T20:14:13.554Z,100.00
2022-11-15T20:16:41.494Z,100.00
2022-11-15T20:19:09.138Z,100.00
2022-11-15T20:21:38.494Z,100.00
2022-11-15T20:24:06.521Z,100.00
2022-11-15T20:26:34.044Z,100.00
2022-11-15T20:29:03.889Z,100.00
2022-11-15T20:31:31.876Z,100.00
2022-11-15T20:33:59.524Z,100.00
2022-11-15T20:36:28.406Z,100.00
2022-11-15T20:39:00.550Z,100.00
2022-11-15T20:41:28.483Z,100.00
2022-11-15T20:43:55.662Z,100.00
2022-11-15T20:46:23.297Z,100.00
2022-11-15T20:48:51.374Z,100.00
2022-11-15T20:51:19.817Z,100.00
2022-11-15T20:53:58.694Z,100.00
2022-11-15T20:56:32.749Z,100.00
2022-11-15T20:59:04.157Z,100.00
2022-11-15T21:01:36.512Z,100.00
2022-11-15T21:04:04.197Z,100.00
2022-11-15T21:06:38.225Z,100.00
2022-11-15T21:09:34.033Z,100.00
2022-11-15T21:12:14.024Z,100.00
2022-11-15T21:14:44.384Z,100.00
2022-11-15T21:17:12.833Z,100.00
2022-11-15T21:19:43.037Z,100.00
2022-11-15T21:22:13.404Z,100.00
2022-11-15T21:24:40.917Z,100.00
2022-11-15T21:27:09.223Z,100.00
2022-11-15T21:29:39.003Z,100.00
2022-11-15T21:32:10.566Z,100.00
2022-11-15T21:34:48.015Z,100.00
2022-11-15T21:37:15.088Z,100.00
2022-11-15T21:39:48.452Z,100.00
2022-11-15T21:43:05.677Z,100.00
2022-11-15T21:45:39.136Z,100.00
2022-11-15T21:48:30.180Z,100.00
2022-11-15T21:51:03.191Z,100.00
2022-11-15T21:53:36.150Z,100.00
2022-11-15T21:56:22.070Z,100.00
2022-11-15T21:58:51.253Z,100.00
2022-11-15T22:01:47.498Z,100.00
2022-11-15T22:04:21.728Z,100.00
2022-11-15T22:06:48.854Z,100.00
2022-11-15T22:09:16.880Z,100.00
2022-11-15T22:11:46.007Z,100.00
2022-11-15T22:14:15.258Z,100.00
2022-11-15T22:16:43.427Z,100.00
2022-11-15T22:19:10.412Z,100.00
2022-11-15T22:21:41.077Z,100.00
2022-11-15T22:24:21.864Z,100.00
2022-11-15T22:26:48.923Z,100.00
2022-11-15T22:29:15.930Z,100.00
2022-11-15T22:31:49.974Z,100.00
2022-11-15T22:34:25.496Z,100.00
2022-11-15T22:39:44.572Z,100.00
2022-11-15T22:42:13.821Z,100.00
2022-11-15T22:44:40.786Z,100.00
2022-11-15T22:47:09.843Z,100.00
2022-11-15T22:49:36.862Z,100.00
2022-11-15T22:52:04.070Z,100.00
2022-11-15T22:54:31.218Z,100.00
2022-11-15T22:57:01.163Z,100.00
2022-11-15T22:59:49.896Z,100.00
2022-11-15T23:02:38.821Z,100.00
2022-11-15T23:05:19.366Z,100.00
2022-11-15T23:07:54.580Z,100.00
2022-11-15T23:10:42.235Z,100.00
2022-11-15T23:13:17.146Z,100.00
2022-11-15T23:16:10.360Z,100.00
2022-11-15T23:18:39.418Z,100.00
2022-11-15T23:21:51.706Z,100.00
2022-11-15T23:24:38.729Z,100.00
2022-11-15T23:27:09.772Z,100.00
2022-11-15T23:30:18.511Z,100.00
2022-11-15T23:33:05.277Z,100.00
2022-11-15T23:35:38.179Z,100.00
2022-11-15T23:38:10.244Z,100.00
2022-11-15T23:40:40.425Z,100.00
2022-11-15T23:43:07.504Z,100.00
2022-11-15T23:45:38.264Z,100.00
2022-11-15T23:48:24.957Z,100.00
2022-11-15T23:50:51.999Z,100.00
2022-11-15T23:53:20.435Z,100.00
2022-11-15T23:56:00.467Z,100.00
2022-11-15T23:58:30.704Z,100.00
